SWA2885 KSAN-KOAK
Flight info
| Callsign | SWA2885 |
|---|---|
| Flight time | N/A |
| Altitude | 36000 |
| Route | PADRZ2 OROSZ COREZ RGOOD EMZOH4 |
| Aircraft | B737/M-SDE2E3FGHIRWXY/LB1 |
Departure
| Time | 2026-04-25 02:08 |
|---|---|
| Airport | San Diego International Airport (KSAN) |
Arrival
| Time | N/A |
|---|---|
| Airport | San Francisco Bay Oakland International Airport (KOAK) |
| Time | Latitude | Longitude | Altitude | Speed | Heading |
|---|---|---|---|---|---|
| 2026-04-25 01:27 | 32.73377 | -117.20354 | 21 ft | 0 kts | 268° |
| 2026-04-25 01:56 | 32.73377 | -117.20353 | 20 ft | 0 kts | 268° |
| 2026-04-25 01:56 | 32.73377 | -117.20337 | 20 ft | 2 kts | 268° |
| 2026-04-25 01:57 | 32.73377 | -117.20300 | 21 ft | 2 kts | 291° |
| 2026-04-25 01:57 | 32.73370 | -117.20285 | 21 ft | 2 kts | 312° |
| 2026-04-25 01:57 | 32.73357 | -117.20274 | 21 ft | 2 kts | 336° |
| 2026-04-25 01:58 | 32.73351 | -117.20271 | 21 ft | 1 kts | 348° |
| 2026-04-25 01:58 | 32.73347 | -117.20270 | 21 ft | 0 kts | 345° |
| 2026-04-25 02:01 | 32.73356 | -117.20274 | 20 ft | 4 kts | 345° |
| 2026-04-25 02:01 | 32.73393 | -117.20277 | 20 ft | 5 kts | 8° |
| 2026-04-25 02:01 | 32.73440 | -117.20266 | 20 ft | 8 kts | 12° |
| 2026-04-25 02:01 | 32.73506 | -117.20242 | 21 ft | 11 kts | 24° |
| 2026-04-25 02:02 | 32.73544 | -117.20155 | 21 ft | 14 kts | 109° |
| 2026-04-25 02:02 | 32.73509 | -117.20027 | 21 ft | 17 kts | 107° |
| 2026-04-25 02:02 | 32.73471 | -117.19874 | 22 ft | 21 kts | 107° |
| 2026-04-25 02:02 | 32.73430 | -117.19706 | 22 ft | 20 kts | 105° |
| 2026-04-25 02:03 | 32.73398 | -117.19566 | 23 ft | 13 kts | 105° |
| 2026-04-25 02:03 | 32.73372 | -117.19456 | 23 ft | 16 kts | 106° |
| 2026-04-25 02:03 | 32.73336 | -117.19307 | 23 ft | 20 kts | 105° |
| 2026-04-25 02:03 | 32.73296 | -117.19145 | 23 ft | 19 kts | 107° |
| 2026-04-25 02:04 | 32.73258 | -117.18989 | 23 ft | 19 kts | 106° |
| 2026-04-25 02:04 | 32.73220 | -117.18837 | 23 ft | 19 kts | 105° |
| 2026-04-25 02:04 | 32.73184 | -117.18684 | 23 ft | 18 kts | 105° |
| 2026-04-25 02:04 | 32.73149 | -117.18539 | 23 ft | 18 kts | 106° |
| 2026-04-25 02:05 | 32.73114 | -117.18395 | 23 ft | 17 kts | 106° |
| 2026-04-25 02:05 | 32.73080 | -117.18255 | 24 ft | 17 kts | 105° |
| 2026-04-25 02:05 | 32.73054 | -117.18146 | 24 ft | 10 kts | 105° |
| 2026-04-25 02:05 | 32.73034 | -117.18060 | 24 ft | 10 kts | 106° |
| 2026-04-25 02:06 | 32.73015 | -117.17981 | 24 ft | 9 kts | 106° |
| 2026-04-25 02:06 | 32.72994 | -117.17897 | 24 ft | 12 kts | 107° |
| 2026-04-25 02:06 | 32.72971 | -117.17803 | 25 ft | 11 kts | 105° |
| 2026-04-25 02:06 | 32.72963 | -117.17722 | 25 ft | 8 kts | 77° |
| 2026-04-25 02:07 | 32.72995 | -117.17671 | 25 ft | 7 kts | 23° |
| 2026-04-25 02:07 | 32.73040 | -117.17667 | 26 ft | 6 kts | 313° |
| 2026-04-25 02:07 | 32.73054 | -117.17719 | 25 ft | 8 kts | 285° |
| 2026-04-25 02:07 | 32.73089 | -117.17868 | 25 ft | 29 kts | 285° |
| 2026-04-25 02:08 | 32.73193 | -117.18307 | 24 ft | 90 kts | 286° |
| 2026-04-25 02:08 | 32.73431 | -117.19286 | 26 ft | 153 kts | 284° |
| 2026-04-25 02:08 | 32.73763 | -117.20590 | 429 ft | 175 kts | 286° |
| 2026-04-25 02:08 | 32.74180 | -117.21966 | 1268 ft | 176 kts | 295° |
| 2026-04-25 02:09 | 32.74887 | -117.23169 | 1831 ft | 188 kts | 308° |
| 2026-04-25 02:09 | 32.75726 | -117.24435 | 2371 ft | 201 kts | 305° |
| 2026-04-25 02:09 | 32.76547 | -117.25819 | 2872 ft | 215 kts | 303° |
| 2026-04-25 02:09 | 32.77409 | -117.27343 | 3370 ft | 230 kts | 302° |
| 2026-04-25 02:10 | 32.78323 | -117.28962 | 3972 ft | 241 kts | 302° |
| 2026-04-25 02:10 | 32.79260 | -117.30609 | 4655 ft | 249 kts | 303° |
| 2026-04-25 02:10 | 32.80275 | -117.32346 | 5268 ft | 261 kts | 304° |
| 2026-04-25 02:10 | 32.81369 | -117.34065 | 6107 ft | 263 kts | 306° |
| 2026-04-25 02:11 | 32.82492 | -117.35774 | 6947 ft | 265 kts | 306° |
| 2026-04-25 02:11 | 32.83622 | -117.37494 | 7813 ft | 266 kts | 306° |
| 2026-04-25 02:11 | 32.84751 | -117.39233 | 8633 ft | 270 kts | 305° |
| 2026-04-25 02:11 | 32.85890 | -117.40999 | 9495 ft | 271 kts | 305° |
| 2026-04-25 02:12 | 32.87025 | -117.42763 | 10311 ft | 275 kts | 304° |
| 2026-04-25 02:12 | 32.88218 | -117.44623 | 10851 ft | 290 kts | 304° |
| 2026-04-25 02:12 | 32.89481 | -117.46592 | 11395 ft | 305 kts | 304° |
| 2026-04-25 02:12 | 32.90768 | -117.48594 | 12134 ft | 312 kts | 304° |
| 2026-04-25 02:13 | 32.92084 | -117.50639 | 13043 ft | 313 kts | 304° |
| 2026-04-25 02:13 | 32.93402 | -117.52688 | 13922 ft | 316 kts | 303° |
| 2026-04-25 02:13 | 32.94752 | -117.54790 | 14777 ft | 320 kts | 303° |
| 2026-04-25 02:13 | 32.96089 | -117.56874 | 15645 ft | 322 kts | 303° |
| 2026-04-25 02:14 | 32.97456 | -117.59006 | 16473 ft | 325 kts | 303° |
| 2026-04-25 02:14 | 32.98814 | -117.61124 | 17291 ft | 326 kts | 303° |
| 2026-04-25 02:14 | 33.00190 | -117.63274 | 18036 ft | 330 kts | 303° |
| 2026-04-25 02:14 | 33.01578 | -117.65444 | 18816 ft | 333 kts | 302° |
| 2026-04-25 02:15 | 33.02991 | -117.67654 | 19549 ft | 337 kts | 302° |
| 2026-04-25 02:15 | 33.04408 | -117.69868 | 20321 ft | 339 kts | 302° |
| 2026-04-25 02:15 | 33.05884 | -117.72089 | 20988 ft | 344 kts | 305° |
| 2026-04-25 02:15 | 33.07524 | -117.74170 | 21653 ft | 351 kts | 310° |
| 2026-04-25 02:16 | 33.09347 | -117.76138 | 22348 ft | 355 kts | 313° |
| 2026-04-25 02:16 | 33.11239 | -117.78048 | 22970 ft | 360 kts | 314° |
| 2026-04-25 02:16 | 33.13178 | -117.79974 | 23566 ft | 364 kts | 314° |
| 2026-04-25 02:16 | 33.14004 | -117.80794 | 23867 ft | 364 kts | 314° |
| 2026-04-25 02:17 | 33.15596 | -117.82381 | 24379 ft | 366 kts | 313° |
| 2026-04-25 02:17 | 33.17538 | -117.84329 | 24960 ft | 370 kts | 313° |
| 2026-04-25 02:17 | 33.19521 | -117.86328 | 25575 ft | 372 kts | 313° |
| 2026-04-25 02:17 | 33.21528 | -117.88321 | 26218 ft | 374 kts | 313° |
| 2026-04-25 02:18 | 33.23533 | -117.90279 | 26697 ft | 379 kts | 314° |
| 2026-04-25 02:18 | 33.25586 | -117.92271 | 27223 ft | 383 kts | 314° |
| 2026-04-25 02:18 | 33.27680 | -117.94295 | 27866 ft | 383 kts | 314° |
| 2026-04-25 02:18 | 33.29731 | -117.96285 | 28312 ft | 387 kts | 313° |
| 2026-04-25 02:19 | 33.31816 | -117.98311 | 28888 ft | 388 kts | 314° |
| 2026-04-25 02:19 | 33.33922 | -118.00364 | 29374 ft | 391 kts | 313° |
| 2026-04-25 02:19 | 33.36037 | -118.02430 | 29835 ft | 394 kts | 313° |
| 2026-04-25 02:19 | 33.38164 | -118.04510 | 30318 ft | 396 kts | 313° |
| 2026-04-25 02:20 | 33.40267 | -118.06567 | 30987 ft | 392 kts | 312° |
| 2026-04-25 02:20 | 33.42368 | -118.08615 | 31758 ft | 386 kts | 312° |
| 2026-04-25 02:20 | 33.44430 | -118.10628 | 32416 ft | 382 kts | 311° |
| 2026-04-25 02:20 | 33.46485 | -118.12638 | 32972 ft | 380 kts | 310° |
| 2026-04-25 02:21 | 33.48527 | -118.14644 | 33473 ft | 379 kts | 310° |
| 2026-04-25 02:21 | 33.50559 | -118.16643 | 34030 ft | 377 kts | 310° |
| 2026-04-25 02:21 | 33.52564 | -118.18613 | 34667 ft | 372 kts | 309° |
| 2026-04-25 02:21 | 33.54570 | -118.20585 | 35123 ft | 372 kts | 309° |
| 2026-04-25 02:22 | 33.56592 | -118.22500 | 35705 ft | 371 kts | 311° |
| 2026-04-25 02:22 | 33.58774 | -118.24247 | 35914 ft | 383 kts | 317° |
| 2026-04-25 02:22 | 33.61178 | -118.25787 | 35924 ft | 395 kts | 321° |
| 2026-04-25 02:22 | 33.63702 | -118.27216 | 35923 ft | 406 kts | 323° |
| 2026-04-25 02:23 | 33.66301 | -118.28615 | 35782 ft | 411 kts | 323° |
| 2026-04-25 02:23 | 33.68918 | -118.30005 | 35909 ft | 416 kts | 323° |
| 2026-04-25 02:23 | 33.71583 | -118.31432 | 35915 ft | 421 kts | 324° |
| 2026-04-25 02:24 | 33.76945 | -118.34315 | 35922 ft | 422 kts | 324° |